createdAt,value
2023-05-10T00:00:16.571Z,6489.00
2023-05-10T00:01:16.386Z,6528.00
2023-05-10T00:02:16.467Z,6490.00
2023-05-10T00:03:16.427Z,6477.00
2023-05-10T00:04:16.439Z,6460.00
2023-05-10T00:05:16.333Z,6449.00
2023-05-10T00:06:16.311Z,6409.00
2023-05-10T00:07:16.326Z,6368.00
2023-05-10T00:08:16.316Z,6351.00
2023-05-10T00:09:16.280Z,6379.00
2023-05-10T00:10:16.504Z,6328.00
2023-05-10T00:11:16.192Z,6230.00
2023-05-10T00:12:16.118Z,6074.00
2023-05-10T00:13:16.087Z,5892.00
2023-05-10T00:14:16.026Z,5860.00
2023-05-10T00:15:15.969Z,5854.00
2023-05-10T00:16:15.938Z,5892.00
2023-05-10T00:17:15.897Z,5949.00
2023-05-10T00:18:15.861Z,6005.00
2023-05-10T00:19:16.089Z,6045.00
2023-05-10T00:20:16.010Z,6112.00
2023-05-10T00:21:15.720Z,6143.00
2023-05-10T00:22:15.742Z,6170.00
2023-05-10T00:23:15.768Z,6173.00
2023-05-10T00:24:15.604Z,6130.00
2023-05-10T00:25:15.553Z,6159.00
2023-05-10T00:26:15.506Z,6214.00
2023-05-10T00:27:15.495Z,6209.00
2023-05-10T00:28:15.414Z,6200.00
2023-05-10T00:29:15.360Z,6121.00
2023-05-10T00:30:15.453Z,6092.00
2023-05-10T00:31:15.257Z,6070.00
2023-05-10T00:32:15.248Z,6110.00
2023-05-10T00:33:15.140Z,6086.00
2023-05-10T00:34:15.084Z,6045.00
2023-05-10T00:35:15.048Z,6065.00
2023-05-10T00:36:14.975Z,6124.00
2023-05-10T00:37:14.944Z,6218.00
2023-05-10T00:38:14.877Z,6244.00
2023-05-10T00:39:14.814Z,6192.00
2023-05-10T00:40:15.037Z,6069.00
2023-05-10T00:41:14.719Z,5965.00
2023-05-10T00:42:14.693Z,5864.00
2023-05-10T00:43:14.642Z,5841.00
2023-05-10T00:44:14.598Z,5906.00
2023-05-10T00:45:14.544Z,5950.00
2023-05-10T00:46:14.544Z,5978.00
2023-05-10T00:47:14.430Z,5998.00
2023-05-10T00:48:14.395Z,6014.00
2023-05-10T00:49:14.325Z,6076.00
2023-05-10T00:50:14.619Z,6084.00
2023-05-10T00:51:14.395Z,6012.00
2023-05-10T00:52:14.166Z,5948.00
2023-05-10T00:53:14.169Z,5932.00
2023-05-10T00:54:14.083Z,5885.00
2023-05-10T00:55:14.038Z,5884.00
2023-05-10T00:56:14.010Z,5926.00
2023-05-10T00:57:13.967Z,5860.00
2023-05-10T00:58:13.920Z,5702.00
2023-05-10T00:59:13.878Z,5614.00
2023-05-10T01:00:13.992Z,5548.00
2023-05-10T01:01:13.816Z,5569.00
2023-05-10T01:02:13.828Z,5565.00
2023-05-10T01:03:13.839Z,5532.00
2023-05-10T01:04:13.675Z,5410.00
2023-05-10T01:05:13.655Z,5346.00
2023-05-10T01:06:13.579Z,5310.00
2023-05-10T01:07:13.531Z,5194.00
2023-05-10T01:08:13.500Z,5059.00
2023-05-10T01:09:13.454Z,5065.00
2023-05-10T01:10:13.567Z,5075.00
2023-05-10T01:11:13.422Z,4931.00
2023-05-10T01:12:13.400Z,4855.00
2023-05-10T01:13:13.437Z,4863.00
2023-05-10T01:14:13.340Z,4879.00
2023-05-10T01:15:13.313Z,4918.00
2023-05-10T01:16:13.388Z,4883.00
2023-05-10T01:17:13.284Z,4811.00
2023-05-10T01:18:13.266Z,4693.00
2023-05-10T01:19:13.243Z,4702.00
2023-05-10T01:20:13.234Z,4643.00
2023-05-10T01:21:13.221Z,4501.00
2023-05-10T01:22:13.233Z,4364.00
2023-05-10T01:23:13.226Z,4315.00
2023-05-10T01:24:13.190Z,4218.00
2023-05-10T01:25:13.165Z,4152.00
2023-05-10T01:26:13.129Z,4065.00
2023-05-10T01:27:13.097Z,4050.00
2023-05-10T01:28:13.053Z,4019.00
2023-05-10T01:29:13.041Z,3944.00
2023-05-10T01:30:15.309Z,3963.00
2023-05-10T01:31:12.993Z,3978.00
2023-05-10T01:32:12.885Z,4017.00
2023-05-10T01:33:12.852Z,4036.00
2023-05-10T01:34:12.795Z,3904.00
2023-05-10T01:35:12.738Z,3903.00
2023-05-10T01:36:12.693Z,3870.00
2023-05-10T01:37:12.658Z,3834.00
2023-05-10T01:38:12.608Z,3792.00
2023-05-10T01:39:12.545Z,3786.00
2023-05-10T01:40:12.506Z,3717.00
2023-05-10T01:41:12.460Z,3696.00
2023-05-10T01:42:12.442Z,3738.00
2023-05-10T01:43:12.374Z,3737.00
2023-05-10T01:44:12.339Z,3697.00
2023-05-10T01:45:12.317Z,3555.00
2023-05-10T01:46:12.334Z,3499.00
2023-05-10T01:47:12.211Z,3582.00
2023-05-10T01:48:12.217Z,3683.00
2023-05-10T01:49:12.115Z,3747.00
2023-05-10T01:50:12.073Z,3841.00
2023-05-10T01:51:12.037Z,3839.00
2023-05-10T01:52:11.977Z,3806.00
2023-05-10T01:53:11.931Z,3814.00
2023-05-10T01:54:11.884Z,3843.00
2023-05-10T01:55:11.872Z,3883.00
2023-05-10T01:56:11.802Z,3881.00
2023-05-10T01:57:11.749Z,3840.00
2023-05-10T01:58:11.917Z,3788.00
2023-05-10T01:59:12.066Z,3796.00
2023-05-10T02:00:12.233Z,3792.00
2023-05-10T02:01:12.195Z,3780.00
2023-05-10T02:02:12.130Z,3646.00
2023-05-10T02:03:12.158Z,3615.00
2023-05-10T02:04:12.116Z,3518.00
2023-05-10T02:05:11.992Z,3460.00
2023-05-10T02:06:11.944Z,3470.00
2023-05-10T02:07:11.887Z,3572.00
2023-05-10T02:08:11.888Z,3602.00
2023-05-10T02:09:11.864Z,3561.00
2023-05-10T02:10:11.926Z,3521.00
2023-05-10T02:11:12.061Z,3452.00
2023-05-10T02:12:12.147Z,3513.00
2023-05-10T02:13:12.478Z,3544.00
2023-05-10T02:14:12.634Z,3527.00
2023-05-10T02:15:12.816Z,3548.00
2023-05-10T02:16:13.039Z,3608.00
2023-05-10T02:17:13.189Z,3522.00
2023-05-10T02:18:13.300Z,3429.00
2023-05-10T02:19:13.402Z,3461.00
2023-05-10T02:20:13.847Z,3493.00
2023-05-10T02:21:13.728Z,3612.00
2023-05-10T02:22:13.626Z,3571.00
2023-05-10T02:23:13.609Z,3649.00
2023-05-10T02:24:13.587Z,3722.00
2023-05-10T02:25:13.564Z,3743.00
2023-05-10T02:26:13.543Z,3781.00
2023-05-10T02:27:13.526Z,3857.00
2023-05-10T02:28:13.552Z,3902.00
2023-05-10T02:29:13.565Z,3943.00
2023-05-10T02:30:13.660Z,3876.00
2023-05-10T02:31:13.579Z,3855.00
2023-05-10T02:32:13.777Z,3822.00
2023-05-10T02:33:13.638Z,3761.00
2023-05-10T02:34:13.667Z,3729.00
2023-05-10T02:35:13.702Z,3691.00
2023-05-10T02:36:13.710Z,3673.00
2023-05-10T02:37:13.728Z,3686.00
2023-05-10T02:38:13.772Z,3719.00
2023-05-10T02:39:13.816Z,3780.00
2023-05-10T02:40:13.810Z,3713.00
2023-05-10T02:41:13.848Z,3480.00
2023-05-10T02:42:13.855Z,3455.00
2023-05-10T02:43:13.891Z,3485.00
2023-05-10T02:44:13.918Z,3509.00
2023-05-10T02:45:13.957Z,3517.00
2023-05-10T02:46:14.040Z,3552.00
2023-05-10T02:47:13.995Z,3617.00
2023-05-10T02:48:14.019Z,3636.00
2023-05-10T02:49:14.005Z,3597.00
2023-05-10T02:50:14.260Z,3624.00
2023-05-10T02:51:14.061Z,3723.00
2023-05-10T02:52:14.167Z,3682.00
2023-05-10T02:53:14.138Z,3599.00
2023-05-10T02:54:14.138Z,3589.00
2023-05-10T02:55:14.172Z,3643.00
2023-05-10T02:56:14.192Z,3629.00
2023-05-10T02:57:14.202Z,3660.00
2023-05-10T02:58:14.226Z,3666.00
2023-05-10T02:59:14.271Z,3719.00
2023-05-10T03:00:14.469Z,3723.00
2023-05-10T03:01:14.350Z,3642.00
2023-05-10T03:02:14.358Z,3630.00
2023-05-10T03:03:14.394Z,3626.00
2023-05-10T03:04:14.455Z,3673.00
2023-05-10T03:05:14.447Z,3664.00
2023-05-10T03:06:14.482Z,3647.00
2023-05-10T03:07:14.502Z,3675.00
2023-05-10T03:08:14.512Z,3520.00
2023-05-10T03:09:14.537Z,3417.00
2023-05-10T03:10:14.934Z,3296.00
2023-05-10T03:11:14.577Z,3230.00
2023-05-10T03:12:14.580Z,3267.00
2023-05-10T03:13:14.703Z,3276.00
2023-05-10T03:14:14.639Z,3233.00
2023-05-10T03:15:14.659Z,3247.00
2023-05-10T03:16:14.686Z,3188.00
2023-05-10T03:17:14.654Z,3116.00
2023-05-10T03:18:14.655Z,3155.00
2023-05-10T03:19:14.673Z,3265.00
2023-05-10T03:20:14.820Z,3317.00
2023-05-10T03:21:14.696Z,3224.00
2023-05-10T03:22:14.732Z,3212.00
2023-05-10T03:23:14.790Z,3293.00
2023-05-10T03:24:14.802Z,3344.00
2023-05-10T03:25:14.868Z,3354.00
2023-05-10T03:26:14.928Z,3471.00
2023-05-10T03:27:14.901Z,3482.00
2023-05-10T03:28:14.931Z,3402.00
2023-05-10T03:29:14.970Z,3403.00
2023-05-10T03:30:15.228Z,3403.00
2023-05-10T03:31:15.061Z,3506.00
2023-05-10T03:32:15.062Z,3606.00
2023-05-10T03:33:15.145Z,3567.00
2023-05-10T03:34:15.127Z,3432.00
2023-05-10T03:35:15.206Z,3290.00
2023-05-10T03:36:15.176Z,3165.00
2023-05-10T03:37:15.161Z,3138.00
2023-05-10T03:38:15.158Z,3249.00
2023-05-10T03:39:15.163Z,3275.00
2023-05-10T03:40:15.327Z,3202.00
2023-05-10T03:41:15.187Z,3189.00
2023-05-10T03:42:15.220Z,3125.00
2023-05-10T03:43:15.249Z,3160.00
2023-05-10T03:44:15.216Z,3168.00
2023-05-10T03:45:15.185Z,3308.00
2023-05-10T03:46:15.211Z,3324.00
2023-05-10T03:47:15.150Z,3203.00
2023-05-10T03:48:15.139Z,3160.00
2023-05-10T03:49:15.121Z,3203.00
2023-05-10T03:50:15.341Z,3246.00
2023-05-10T03:51:15.071Z,3338.00
2023-05-10T03:52:15.046Z,3442.00
2023-05-10T03:53:15.007Z,3381.00
2023-05-10T03:54:14.987Z,3310.00
2023-05-10T03:55:14.958Z,3320.00
2023-05-10T03:56:14.963Z,3333.00
2023-05-10T03:57:15.002Z,3302.00
2023-05-10T03:58:14.996Z,3275.00
2023-05-10T03:59:15.003Z,3258.00
2023-05-10T04:00:15.224Z,3308.00
2023-05-10T04:01:15.026Z,3317.00
2023-05-10T04:02:15.072Z,3326.00
2023-05-10T04:03:15.061Z,3374.00
2023-05-10T04:04:15.030Z,3413.00
2023-05-10T04:05:15.092Z,3507.00
2023-05-10T04:06:15.277Z,3533.00
2023-05-10T04:07:15.363Z,3535.00
2023-05-10T04:08:15.500Z,3518.00
2023-05-10T04:09:15.666Z,3524.00
2023-05-10T04:10:16.148Z,3555.00
2023-05-10T04:11:15.840Z,3570.00
2023-05-10T04:12:15.877Z,3578.00
2023-05-10T04:13:15.919Z,3524.00
2023-05-10T04:14:15.875Z,3501.00
2023-05-10T04:15:15.882Z,3595.00
2023-05-10T04:16:15.895Z,3632.00
2023-05-10T04:17:15.888Z,3645.00
2023-05-10T04:18:15.823Z,3649.00
2023-05-10T04:19:15.815Z,3684.00
2023-05-10T04:20:16.082Z,3596.00
2023-05-10T04:21:15.757Z,3602.00
2023-05-10T04:22:15.755Z,3685.00
2023-05-10T04:23:15.746Z,3717.00
2023-05-10T04:24:15.770Z,3611.00
2023-05-10T04:25:15.768Z,3608.00
2023-05-10T04:26:15.782Z,3617.00
2023-05-10T04:27:15.812Z,3516.00
2023-05-10T04:28:15.838Z,3502.00
2023-05-10T04:29:15.853Z,3632.00
2023-05-10T04:30:15.990Z,3678.00
2023-05-10T04:31:15.904Z,3670.00
2023-05-10T04:32:15.837Z,3700.00
2023-05-10T04:33:15.836Z,3686.00
2023-05-10T04:34:15.849Z,3680.00
2023-05-10T04:35:15.832Z,3640.00
2023-05-10T04:36:15.832Z,3471.00
2023-05-10T04:37:15.787Z,3519.00
2023-05-10T04:38:15.765Z,3552.00
2023-05-10T04:39:15.756Z,3486.00
2023-05-10T04:40:15.926Z,3350.00
2023-05-10T04:41:15.705Z,3290.00
2023-05-10T04:42:15.702Z,3309.00
2023-05-10T04:43:15.677Z,3378.00
2023-05-10T04:44:15.659Z,3517.00
2023-05-10T04:45:15.742Z,3644.00
2023-05-10T04:46:15.901Z,3451.00
2023-05-10T04:47:16.025Z,3308.00
2023-05-10T04:48:16.138Z,3331.00
2023-05-10T04:49:16.257Z,3342.00
2023-05-10T04:50:16.680Z,3373.00
2023-05-10T04:51:16.618Z,3363.00
2023-05-10T04:52:16.787Z,3460.00
2023-05-10T04:53:16.888Z,3558.00
2023-05-10T04:54:16.997Z,3563.00
2023-05-10T04:55:17.116Z,3470.00
2023-05-10T04:56:17.248Z,3391.00
2023-05-10T04:57:17.368Z,3419.00
2023-05-10T04:58:17.529Z,3442.00
2023-05-10T04:59:17.694Z,3463.00
2023-05-10T05:00:18.037Z,3347.00
2023-05-10T05:01:17.808Z,3285.00
2023-05-10T05:02:17.751Z,3342.00
2023-05-10T05:03:17.799Z,3368.00
2023-05-10T05:04:17.719Z,3388.00
2023-05-10T05:05:17.684Z,3358.00
2023-05-10T05:06:17.632Z,3300.00
2023-05-10T05:07:17.750Z,3331.00
2023-05-10T05:08:17.868Z,3352.00
2023-05-10T05:09:18.001Z,3428.00
2023-05-10T05:10:18.529Z,3449.00
2023-05-10T05:11:18.353Z,3513.00
2023-05-10T05:12:18.295Z,3569.00
2023-05-10T05:13:18.300Z,3613.00
2023-05-10T05:14:18.219Z,3575.00
2023-05-10T05:15:18.200Z,3494.00
2023-05-10T05:16:18.262Z,3514.00
2023-05-10T05:17:18.137Z,3577.00
2023-05-10T05:18:18.121Z,3672.00
2023-05-10T05:19:18.101Z,3573.00
2023-05-10T05:20:18.312Z,3472.00
2023-05-10T05:21:18.074Z,3386.00
2023-05-10T05:22:19.606Z,3323.00
2023-05-10T05:23:18.023Z,3279.00
2023-05-10T05:24:18.068Z,3291.00
2023-05-10T05:25:17.985Z,3306.00
2023-05-10T05:26:17.992Z,3382.00
2023-05-10T05:27:17.986Z,3461.00
2023-05-10T05:28:17.984Z,3513.00
2023-05-10T05:29:18.095Z,3543.00
2023-05-10T05:30:18.400Z,3598.00
2023-05-10T05:31:18.225Z,3701.00
2023-05-10T05:32:18.181Z,3780.00
2023-05-10T05:33:18.165Z,3808.00
2023-05-10T05:34:18.172Z,3807.00
2023-05-10T05:35:18.345Z,3792.00
2023-05-10T05:36:18.097Z,3765.00
2023-05-10T05:37:18.082Z,3703.00
2023-05-10T05:38:18.073Z,3680.00
2023-05-10T05:39:18.071Z,3674.00
2023-05-10T05:40:18.045Z,3789.00
2023-05-10T05:41:18.006Z,3835.00
2023-05-10T05:42:18.004Z,3759.00
2023-05-10T05:43:18.010Z,3661.00
2023-05-10T05:44:18.066Z,3528.00
2023-05-10T05:45:18.376Z,3521.00
2023-05-10T05:46:18.117Z,3559.00
2023-05-10T05:47:17.930Z,3615.00
2023-05-10T05:48:18.027Z,3682.00
2023-05-10T05:49:17.966Z,3698.00
2023-05-10T05:50:18.079Z,3745.00
2023-05-10T05:51:18.165Z,3862.00
2023-05-10T05:52:18.481Z,3939.00
2023-05-10T05:53:18.611Z,3929.00
2023-05-10T05:54:18.759Z,3863.00
2023-05-10T05:55:19.094Z,3881.00
2023-05-10T05:56:18.926Z,3869.00
2023-05-10T05:57:18.892Z,3930.00
2023-05-10T05:58:19.629Z,3984.00
2023-05-10T05:59:19.677Z,4047.00
2023-05-10T06:00:19.631Z,4021.00
2023-05-10T06:01:18.834Z,4001.00
2023-05-10T06:02:18.826Z,3967.00
2023-05-10T06:03:18.935Z,3984.00
2023-05-10T06:04:18.806Z,3959.00
2023-05-10T06:05:18.804Z,3905.00
2023-05-10T06:06:18.733Z,3800.00
2023-05-10T06:07:18.720Z,3693.00
2023-05-10T06:08:18.677Z,3629.00
2023-05-10T06:09:18.667Z,3657.00
2023-05-10T06:10:18.634Z,3493.00
2023-05-10T06:11:18.623Z,3414.00
2023-05-10T06:12:18.597Z,3387.00
2023-05-10T06:13:18.656Z,3498.00
2023-05-10T06:14:18.592Z,3596.00
2023-05-10T06:15:18.700Z,3609.00
2023-05-10T06:16:18.613Z,3620.00
2023-05-10T06:17:18.575Z,3539.00
2023-05-10T06:18:18.587Z,3442.00
2023-05-10T06:19:18.653Z,3520.00
2023-05-10T06:20:18.634Z,3550.00
2023-05-10T06:21:18.625Z,3524.00
2023-05-10T06:22:18.660Z,3282.00
2023-05-10T06:23:18.670Z,3209.00
2023-05-10T06:24:18.705Z,3143.00
2023-05-10T06:25:18.837Z,2902.00
2023-05-10T06:26:18.675Z,2701.00
2023-05-10T06:27:18.703Z,2677.00
2023-05-10T06:28:18.807Z,2748.00
2023-05-10T06:29:18.931Z,2713.00
2023-05-10T06:30:19.047Z,2809.00
2023-05-10T06:31:19.394Z,2815.00
2023-05-10T06:32:19.409Z,2813.00
2023-05-10T06:33:19.567Z,2859.00
2023-05-10T06:34:19.712Z,2861.00
2023-05-10T06:35:19.935Z,2938.00
2023-05-10T06:36:19.963Z,3088.00
2023-05-10T06:37:20.195Z,3261.00
2023-05-10T06:38:20.288Z,3382.00
2023-05-10T06:39:20.451Z,3465.00
2023-05-10T06:40:20.612Z,3477.00
2023-05-10T06:41:22.578Z,3437.00
2023-05-10T06:42:20.715Z,3308.00
2023-05-10T06:43:20.667Z,3233.00
2023-05-10T06:44:20.686Z,3191.00
2023-05-10T06:45:20.730Z,3147.00
2023-05-10T06:46:20.587Z,3032.00
2023-05-10T06:47:20.514Z,2988.00
2023-05-10T06:48:20.494Z,3072.00
2023-05-10T06:49:20.452Z,3146.00
2023-05-10T06:50:20.413Z,3309.00
2023-05-10T06:51:20.366Z,3461.00
2023-05-10T06:52:20.343Z,3563.00
2023-05-10T06:53:20.284Z,3613.00
2023-05-10T06:54:20.224Z,3590.00
2023-05-10T06:55:20.196Z,3659.00
2023-05-10T06:56:20.133Z,3531.00
2023-05-10T06:57:31.288Z,3354.00
2023-05-10T06:58:21.074Z,3277.00
2023-05-10T06:59:20.042Z,3335.00
2023-05-10T07:00:20.409Z,3317.00
2023-05-10T07:01:20.108Z,3379.00
2023-05-10T07:02:19.933Z,3407.00
2023-05-10T07:03:19.861Z,3442.00
2023-05-10T07:04:19.812Z,3175.00
2023-05-10T07:05:20.553Z,2586.00
2023-05-10T07:06:32.350Z,2440.00
2023-05-10T07:07:20.630Z,2440.00
2023-05-10T07:08:19.571Z,2456.00
2023-05-10T07:09:19.542Z,2474.00
2023-05-10T07:10:19.500Z,2517.00
2023-05-10T07:11:19.431Z,2669.00
2023-05-10T07:12:19.401Z,2786.00
2023-05-10T07:13:19.447Z,2952.00
2023-05-10T07:14:19.277Z,2950.00
2023-05-10T07:15:21.137Z,2951.00
2023-05-10T07:16:20.262Z,2953.00
2023-05-10T07:17:19.210Z,2728.00
2023-05-10T07:18:19.111Z,2504.00
2023-05-10T07:19:19.026Z,2502.00
2023-05-10T07:20:18.979Z,2492.00
2023-05-10T07:21:18.969Z,2464.00
2023-05-10T07:22:19.005Z,2605.00
2023-05-10T07:23:18.915Z,2826.00
2023-05-10T07:24:18.805Z,3101.00
2023-05-10T07:25:18.846Z,3356.00
2023-05-10T07:26:18.703Z,3817.00
2023-05-10T07:27:18.662Z,4280.00
2023-05-10T07:28:18.617Z,4287.00
2023-05-10T07:29:18.575Z,4009.00
2023-05-10T07:30:18.577Z,3553.00
2023-05-10T07:31:18.475Z,3217.00
2023-05-10T07:32:18.513Z,3078.00
2023-05-10T07:33:18.448Z,3106.00
2023-05-10T07:34:18.393Z,2980.00
2023-05-10T07:35:18.530Z,2716.00
2023-05-10T07:36:18.360Z,2799.00
2023-05-10T07:37:18.324Z,2934.00
2023-05-10T07:38:18.323Z,3270.00
2023-05-10T07:39:26.510Z,3559.00
2023-05-10T07:40:19.237Z,3565.00
2023-05-10T07:41:18.186Z,3590.00
2023-05-10T07:42:18.155Z,3640.00
2023-05-10T07:43:18.104Z,3813.00
2023-05-10T07:44:18.037Z,4268.00
2023-05-10T07:45:18.155Z,4512.00
2023-05-10T07:46:17.952Z,4573.00
2023-05-10T07:47:17.894Z,4109.00
2023-05-10T07:48:17.838Z,4016.00
2023-05-10T07:49:17.813Z,3095.00
2023-05-10T07:50:17.759Z,2224.00
2023-05-10T07:51:17.725Z,2100.00
2023-05-10T07:52:17.683Z,2270.00
2023-05-10T07:53:17.620Z,2692.00
2023-05-10T07:54:17.579Z,2110.00
2023-05-10T07:55:17.665Z,1354.00
2023-05-10T07:56:17.481Z,1459.00
2023-05-10T07:57:17.469Z,1951.00
2023-05-10T07:58:17.456Z,2665.00
2023-05-10T07:59:17.430Z,3145.00
2023-05-10T08:00:17.546Z,2627.00
2023-05-10T08:01:17.431Z,2576.00
2023-05-10T08:02:17.469Z,2647.00
2023-05-10T08:03:17.459Z,2629.00
2023-05-10T08:04:17.383Z,2989.00
2023-05-10T08:05:17.486Z,3523.00
2023-05-10T08:06:17.258Z,3941.00
2023-05-10T08:07:17.240Z,4132.00
2023-05-10T08:08:17.211Z,4458.00
2023-05-10T08:09:17.150Z,4778.00
2023-05-10T08:10:17.105Z,4884.00
2023-05-10T08:11:17.062Z,4742.00
2023-05-10T08:12:16.997Z,4928.00
2023-05-10T08:13:16.971Z,4657.00
2023-05-10T08:14:16.926Z,4196.00
2023-05-10T08:15:16.988Z,4098.00
2023-05-10T08:16:16.855Z,3097.00
2023-05-10T08:17:18.215Z,2328.00
2023-05-10T08:18:16.862Z,2361.00
2023-05-10T08:19:16.778Z,2617.00
2023-05-10T08:20:16.760Z,2890.00
2023-05-10T08:21:16.783Z,2351.00
2023-05-10T08:22:16.738Z,1505.00
2023-05-10T08:23:16.720Z,1169.00
2023-05-10T08:24:16.726Z,1052.00
2023-05-10T08:25:16.964Z,1116.00
2023-05-10T08:26:16.763Z,1518.00
2023-05-10T08:27:16.762Z,1474.00
2023-05-10T08:28:16.763Z,1520.00
2023-05-10T08:29:16.714Z,1558.00
2023-05-10T08:30:16.695Z,1602.00
2023-05-10T08:31:16.827Z,1770.00
2023-05-10T08:32:16.777Z,1987.00
2023-05-10T08:33:16.996Z,2378.00
2023-05-10T08:34:17.136Z,2387.00
2023-05-10T08:35:17.513Z,2262.00
2023-05-10T08:36:17.303Z,3198.00
2023-05-10T08:37:18.158Z,3793.00
2023-05-10T08:38:17.546Z,3637.00
2023-05-10T08:39:29.291Z,3630.00
2023-05-10T08:40:18.453Z,3633.00
2023-05-10T08:41:17.387Z,3665.00
2023-05-10T08:42:17.304Z,3701.00
2023-05-10T08:43:18.679Z,3734.00
2023-05-10T08:44:17.173Z,3558.00
2023-05-10T08:45:17.379Z,3204.00
2023-05-10T08:46:17.071Z,3148.00
2023-05-10T08:47:17.028Z,3229.00
2023-05-10T08:48:16.936Z,3381.00
2023-05-10T08:49:16.871Z,3477.00
2023-05-10T08:50:16.847Z,3580.00
2023-05-10T08:51:16.791Z,3595.00
2023-05-10T08:52:16.712Z,3529.00
2023-05-10T08:53:16.642Z,3509.00
2023-05-10T08:54:16.584Z,3627.00
2023-05-10T08:55:17.751Z,3351.00
2023-05-10T08:56:16.455Z,3264.00
2023-05-10T08:57:16.412Z,3169.00
2023-05-10T08:58:16.333Z,3000.00
2023-05-10T08:59:16.259Z,2880.00
2023-05-10T09:00:16.311Z,2436.00
2023-05-10T09:01:16.206Z,1890.00
2023-05-10T09:02:17.378Z,1858.00
2023-05-10T09:03:16.228Z,2079.00
2023-05-10T09:04:16.293Z,2282.00
2023-05-10T09:05:16.307Z,2706.00
2023-05-10T09:06:16.724Z,3104.00
2023-05-10T09:07:16.031Z,2602.00
2023-05-10T09:08:15.974Z,2181.00
2023-05-10T09:09:15.937Z,2470.00
2023-05-10T09:10:15.930Z,3112.00
2023-05-10T09:11:15.895Z,3484.00
2023-05-10T09:12:16.718Z,3594.00
2023-05-10T09:13:15.843Z,3575.00
2023-05-10T09:14:15.864Z,3234.00
2023-05-10T09:15:16.015Z,2255.00
2023-05-10T09:16:21.804Z,2099.00
2023-05-10T09:17:16.756Z,2102.00
2023-05-10T09:18:15.698Z,2115.00
2023-05-10T09:19:15.616Z,2077.00
2023-05-10T09:20:15.497Z,981.00
2023-05-10T09:21:15.462Z,663.00
2023-05-10T09:22:15.389Z,732.00
2023-05-10T09:23:15.334Z,810.00
2023-05-10T09:24:15.288Z,517.00
2023-05-10T09:25:15.392Z,400.00
2023-05-10T09:26:15.187Z,461.00
2023-05-10T09:27:15.137Z,791.00
2023-05-10T09:28:15.069Z,727.00
2023-05-10T09:29:16.008Z,827.00
2023-05-10T09:30:14.955Z,1482.00
2023-05-10T09:31:14.930Z,2300.00
2023-05-10T09:32:14.881Z,2125.00
2023-05-10T09:33:15.768Z,1899.00
2023-05-10T09:34:14.762Z,2162.00
2023-05-10T09:35:14.867Z,1954.00
2023-05-10T09:36:14.672Z,1275.00
2023-05-10T09:37:14.642Z,996.00
2023-05-10T09:38:14.590Z,1009.00
2023-05-10T09:39:14.546Z,962.00
2023-05-10T09:40:14.497Z,673.00
2023-05-10T09:41:14.469Z,626.00
2023-05-10T09:42:14.463Z,528.00
2023-05-10T09:43:14.437Z,494.00
2023-05-10T09:44:14.415Z,500.00
2023-05-10T09:45:14.615Z,501.00
2023-05-10T09:46:14.535Z,501.00
2023-05-10T09:47:14.392Z,561.00
2023-05-10T09:48:14.418Z,559.00
2023-05-10T09:49:14.352Z,568.00
2023-05-10T09:50:14.346Z,638.00
2023-05-10T09:51:14.303Z,682.00
2023-05-10T09:52:14.296Z,635.00
2023-05-10T09:53:14.281Z,540.00
2023-05-10T09:54:14.295Z,511.00
2023-05-10T09:55:14.419Z,512.00
2023-05-10T09:56:14.239Z,577.00
2023-05-10T09:57:14.220Z,669.00
2023-05-10T09:58:14.229Z,834.00
2023-05-10T09:59:14.188Z,821.00
2023-05-10T10:00:14.187Z,733.00
2023-05-10T10:01:14.151Z,832.00
2023-05-10T10:02:14.111Z,630.00
2023-05-10T10:03:14.114Z,607.00
2023-05-10T10:04:14.096Z,590.00
2023-05-10T10:05:14.242Z,521.00
2023-05-10T10:06:26.410Z,508.00
2023-05-10T10:07:15.051Z,489.00
2023-05-10T10:08:14.073Z,451.00
2023-05-10T10:09:13.954Z,515.00
2023-05-10T10:10:13.901Z,558.00
2023-05-10T10:11:13.862Z,450.00
2023-05-10T10:12:13.803Z,428.00
2023-05-10T10:13:13.767Z,505.00
2023-05-10T10:14:13.721Z,510.00
2023-05-10T10:15:15.978Z,517.00
2023-05-10T10:16:13.740Z,647.00
2023-05-10T10:17:13.556Z,1350.00
2023-05-10T10:18:13.507Z,1661.00
2023-05-10T10:19:13.443Z,792.00
2023-05-10T10:20:13.436Z,616.00
2023-05-10T10:21:13.353Z,590.00
2023-05-10T10:22:13.316Z,906.00
2023-05-10T10:23:14.184Z,1391.00
2023-05-10T10:24:13.310Z,1394.00
2023-05-10T10:25:13.266Z,1109.00
2023-05-10T10:26:13.285Z,607.00
2023-05-10T10:27:13.269Z,483.00
2023-05-10T10:28:13.230Z,534.00
2023-05-10T10:29:13.202Z,516.00
2023-05-10T10:30:13.195Z,572.00
2023-05-10T10:31:13.211Z,500.00
2023-05-10T10:32:13.182Z,451.00
2023-05-10T10:33:27.361Z,493.00
2023-05-10T10:34:14.265Z,414.00
2023-05-10T10:35:13.141Z,494.00
2023-05-10T10:36:13.097Z,517.00
2023-05-10T10:37:13.055Z,534.00
2023-05-10T10:38:13.015Z,492.00
2023-05-10T10:39:12.986Z,506.00
2023-05-10T10:40:12.944Z,511.00
2023-05-10T10:41:12.953Z,501.00
2023-05-10T10:42:12.932Z,513.00
2023-05-10T10:43:12.917Z,591.00
2023-05-10T10:44:12.909Z,501.00
2023-05-10T10:45:12.957Z,500.00
2023-05-10T10:46:12.988Z,507.00
2023-05-10T10:47:13.125Z,573.00
2023-05-10T10:48:12.927Z,494.00
2023-05-10T10:49:12.936Z,501.00
2023-05-10T10:50:12.944Z,558.00
2023-05-10T10:51:13.128Z,593.00
2023-05-10T10:52:12.918Z,686.00
2023-05-10T10:53:13.021Z,944.00
2023-05-10T10:54:12.952Z,1033.00
2023-05-10T10:55:12.935Z,1066.00
2023-05-10T10:56:12.948Z,1142.00
2023-05-10T10:57:12.904Z,1178.00
2023-05-10T10:58:12.909Z,933.00
2023-05-10T10:59:12.889Z,763.00
2023-05-10T11:00:12.855Z,791.00
2023-05-10T11:01:12.872Z,997.00
2023-05-10T11:02:12.855Z,1313.00
2023-05-10T11:03:12.880Z,1275.00
2023-05-10T11:04:12.905Z,1114.00
2023-05-10T11:05:12.913Z,1040.00
2023-05-10T11:06:12.944Z,1051.00
2023-05-10T11:07:12.943Z,1116.00
2023-05-10T11:08:12.959Z,1135.00
2023-05-10T11:09:12.984Z,1068.00
2023-05-10T11:10:13.008Z,664.00
2023-05-10T11:11:12.996Z,621.00
2023-05-10T11:12:13.015Z,649.00
2023-05-10T11:13:13.039Z,721.00
2023-05-10T11:14:13.054Z,668.00
2023-05-10T11:15:13.051Z,638.00
2023-05-10T11:16:13.088Z,735.00
2023-05-10T11:17:13.176Z,685.00
2023-05-10T11:18:13.060Z,661.00
2023-05-10T11:19:13.193Z,597.00
2023-05-10T11:20:13.099Z,525.00
2023-05-10T11:21:13.054Z,573.00
2023-05-10T11:22:13.021Z,599.00
2023-05-10T11:23:13.018Z,692.00
2023-05-10T11:24:13.001Z,635.00
2023-05-10T11:25:13.003Z,610.00
2023-05-10T11:26:12.980Z,643.00
2023-05-10T11:27:12.949Z,645.00
2023-05-10T11:28:12.946Z,684.00
2023-05-10T11:29:12.936Z,838.00
2023-05-10T11:30:12.990Z,930.00
2023-05-10T11:31:13.044Z,949.00
2023-05-10T11:32:12.937Z,653.00
2023-05-10T11:33:12.933Z,601.00
2023-05-10T11:34:12.954Z,670.00
2023-05-10T11:35:12.976Z,764.00
2023-05-10T11:36:12.981Z,661.00
2023-05-10T11:37:12.954Z,628.00
2023-05-10T11:38:12.940Z,659.00
2023-05-10T11:39:12.936Z,584.00
2023-05-10T11:40:12.923Z,526.00
2023-05-10T11:41:13.019Z,547.00
2023-05-10T11:42:12.944Z,558.00
2023-05-10T11:43:12.939Z,588.00
2023-05-10T11:44:12.944Z,607.00
2023-05-10T11:45:12.920Z,615.00
2023-05-10T11:46:13.048Z,555.00
2023-05-10T11:47:14.820Z,580.00
2023-05-10T11:48:12.921Z,571.00
2023-05-10T11:49:12.903Z,501.00
2023-05-10T11:50:12.949Z,500.00
2023-05-10T11:51:12.868Z,512.00
2023-05-10T11:52:12.853Z,533.00
2023-05-10T11:53:12.833Z,515.00
2023-05-10T11:54:12.857Z,450.00
2023-05-10T11:55:12.920Z,492.00
2023-05-10T11:56:12.941Z,520.00
2023-05-10T11:57:12.984Z,679.00
2023-05-10T11:58:13.001Z,801.00
2023-05-10T11:59:13.038Z,782.00
2023-05-10T12:00:13.096Z,937.00
2023-05-10T12:01:13.065Z,1099.00
2023-05-10T12:02:13.074Z,1323.00
2023-05-10T12:03:13.148Z,1470.00
2023-05-10T12:04:13.332Z,1537.00
2023-05-10T12:05:13.085Z,1531.00
2023-05-10T12:06:13.072Z,1715.00
2023-05-10T12:07:13.078Z,2001.00
2023-05-10T12:08:13.102Z,2432.00
2023-05-10T12:09:13.044Z,2982.00